Tahlequah, OK (74464)

9:46 AM CST on February 10, 2016 (GMT -0600)
Greystone Estates | | Change Station
CLOSE
Current Station
Personal Weather Station
Location: Tahlequah, OK
Elevation: 869 ft
Nearby Weather Stations

Elev 869 ft 35.89 °N, 94.96 °W | Updated 10 seconds ago

Clear
Clear
33.8 °F
Feels Like 27 °F
N
8.1
Wind Variable Wind from East
Gusts 8.1 mph

Today
High -- | Low -- °F
--% Chance of Precip.
Yesterday
High -- | Low -- °F
Precip. -- in
Pressure 30.26 in
Visibility 10.0 miles
Clouds Clear
Windchill 27 °F
Dew Point 12 °F
Humidity 40%
Rainfall 0.00 in
Snow Depth Not available.
7:12 AM 5:55 PM
Waxing Crescent, 6% visible
METAR KTQH 101535Z AUTO 17009KT 10SM CLR 00/M10 A3026 RMK AO2
Pressure 30.26 in
Visibility 10.0 miles
Clouds Clear
Windchill 27 °F
Dew Point 12 °F
Humidity 40%
Rainfall 0.00 in
Snow Depth Not available.
7:12 AM 5:55 PM
Waxing Crescent, 6% visible
METAR KTQH 101535Z AUTO 17009KT 10SM CLR 00/M10 A3026 RMK AO2

10-Day Weather Forecast

Almanac

Astronomy

Feb. 10, 2016 Rise Set
Actual Time
Civil Twilight
Nautical Twilight
Astronomical Twilight
Moon
Length of Visible Light
Length of Day
Tomorrow will be .
, % of the Moon is Illuminated

Today's Extremes

State Highs State Lows

Community

WunderPhotos

Upload Photos

1,891,863 photos uploaded!

WunderBlog® & News

Nearby

Air Quality

  Air Quality AQ Index Pollutant
Not available.

Snow Depth

Station Depth Elevation

Earthquake Activity

City Distance Mag. Time & Date
Minimum magnitude displayed is 2.5.

Coastal Water Temperatures

Place Temperature

Stations

Nearby Weather Stations

Station Location Temp. Windchill Dew Point Humidity Wind Precip. Elev Updated Type
                   

Watches & Warnings

There are currently no watches in effect.